createdAt,value
2019-02-02T00:02:06.413Z,5.20
2019-02-02T00:04:33.806Z,4.93
2019-02-02T00:07:01.228Z,4.63
2019-02-02T00:09:28.687Z,4.07
2019-02-02T00:11:56.109Z,5.03
2019-02-02T00:14:23.497Z,4.50
2019-02-02T00:16:50.978Z,4.37
2019-02-02T00:19:18.374Z,3.83
2019-02-02T00:21:45.791Z,4.50
2019-02-02T00:24:13.303Z,5.20
2019-02-02T00:26:40.723Z,4.40
2019-02-02T00:29:08.116Z,3.60
2019-02-02T00:31:35.530Z,5.00
2019-02-02T00:34:03.062Z,4.57
2019-02-02T00:36:30.420Z,4.23
2019-02-02T00:38:57.796Z,4.93
2019-02-02T00:41:25.230Z,4.77
2019-02-02T00:43:52.608Z,4.90
2019-02-02T00:46:20.097Z,4.97
2019-02-02T00:48:47.491Z,3.70
2019-02-02T00:51:14.982Z,5.70
2019-02-02T00:53:42.500Z,4.47
2019-02-02T00:56:10.170Z,4.13
2019-02-02T00:58:37.593Z,4.80
2019-02-02T01:01:05.082Z,3.47
2019-02-02T01:03:32.474Z,4.77
2019-02-02T01:06:00.004Z,3.50
2019-02-02T01:08:27.388Z,5.03
2019-02-02T01:10:54.851Z,3.70
2019-02-02T01:13:22.274Z,4.80
2019-02-02T01:15:49.664Z,4.10
2019-02-02T01:18:17.192Z,4.97
2019-02-02T01:20:44.574Z,3.97
2019-02-02T01:23:11.991Z,4.20
2019-02-02T01:25:39.452Z,4.30
2019-02-02T01:28:06.932Z,4.93
2019-02-02T01:30:34.466Z,4.20
2019-02-02T01:33:01.916Z,4.03
2019-02-02T01:35:29.302Z,4.60
2019-02-02T01:37:56.789Z,4.30
2019-02-02T01:40:24.840Z,4.50
2019-02-02T01:42:52.334Z,5.40
2019-02-02T01:45:24.406Z,4.57
2019-02-02T01:47:52.085Z,5.23
2019-02-02T01:50:20.455Z,4.40
2019-02-02T01:52:47.937Z,4.07
2019-02-02T01:55:16.283Z,5.37
2019-02-02T01:57:43.970Z,5.33
2019-02-02T02:00:12.897Z,4.60
2019-02-02T02:02:40.313Z,5.57
2019-02-02T02:05:07.965Z,3.90
2019-02-02T02:07:35.388Z,5.23
2019-02-02T02:10:03.348Z,6.20
2019-02-02T02:12:30.951Z,4.73
2019-02-02T02:14:58.312Z,4.63
2019-02-02T02:17:25.726Z,5.43
2019-02-02T02:19:53.119Z,4.90
2019-02-02T02:22:20.615Z,4.60
2019-02-02T02:24:48.026Z,5.03
2019-02-02T02:27:15.446Z,5.20
2019-02-02T02:29:42.832Z,7.13
2019-02-02T02:32:10.335Z,4.10
2019-02-02T02:34:37.721Z,4.77
2019-02-02T02:37:05.212Z,5.30
2019-02-02T02:39:32.605Z,5.10
2019-02-02T02:42:00.011Z,5.40
2019-02-02T02:44:27.394Z,4.70
2019-02-02T02:46:54.819Z,5.50
2019-02-02T02:49:22.219Z,4.37
2019-02-02T02:51:49.635Z,5.67
2019-02-02T02:54:17.018Z,4.60
2019-02-02T02:56:44.444Z,5.33
2019-02-02T02:59:11.823Z,4.23
2019-02-02T03:01:39.312Z,4.92
2019-02-02T03:04:06.735Z,4.10
2019-02-02T03:06:34.154Z,4.80
2019-02-02T03:09:01.535Z,5.80
2019-02-02T03:11:29.115Z,5.90
2019-02-02T03:13:56.522Z,5.70
2019-02-02T03:16:23.914Z,5.10
2019-02-02T03:18:51.334Z,5.27
2019-02-02T03:21:18.802Z,5.97
2019-02-02T03:23:46.210Z,5.57
2019-02-02T03:26:13.597Z,5.67
2019-02-02T03:28:52.803Z,5.00
2019-02-02T03:31:10.070Z,5.10
2019-02-02T03:33:37.491Z,5.00
2019-02-02T03:36:04.905Z,4.87
2019-02-02T03:38:32.318Z,5.20
2019-02-02T03:40:59.782Z,5.63
2019-02-02T03:43:28.153Z,5.40
2019-02-02T03:45:55.530Z,4.93
2019-02-02T03:48:22.949Z,5.30
2019-02-02T03:50:50.333Z,3.60
2019-02-02T03:53:17.755Z,4.50
2019-02-02T03:55:45.174Z,5.07
2019-02-02T03:58:12.573Z,4.67
2019-02-02T04:00:39.962Z,4.93
2019-02-02T04:03:07.381Z,5.00
2019-02-02T04:05:34.938Z,5.70
2019-02-02T04:08:02.368Z,5.23
2019-02-02T04:10:29.755Z,4.97
2019-02-02T04:12:57.235Z,5.00
2019-02-02T04:15:24.690Z,5.53
2019-02-02T04:17:52.128Z,5.47
2019-02-02T04:20:21.049Z,4.40
2019-02-02T04:22:48.735Z,4.60
2019-02-02T04:25:16.307Z,3.80
2019-02-02T04:27:43.723Z,6.27
2019-02-02T04:30:12.661Z,5.33
2019-02-02T04:32:40.137Z,4.60
2019-02-02T04:35:08.802Z,4.40
2019-02-02T04:37:38.172Z,5.83
2019-02-02T04:40:06.832Z,5.20
2019-02-02T04:42:34.275Z,5.60
2019-02-02T04:45:01.661Z,5.47
2019-02-02T04:47:29.080Z,5.40
2019-02-02T04:49:56.462Z,5.90
2019-02-02T04:52:23.893Z,5.20
2019-02-02T04:54:51.285Z,4.70
2019-02-02T04:57:18.704Z,4.10
2019-02-02T04:59:46.109Z,4.70
2019-02-02T05:02:13.536Z,5.80
2019-02-02T05:04:40.954Z,5.80
2019-02-02T05:07:08.341Z,4.67
2019-02-02T05:09:35.757Z,3.57
2019-02-02T05:12:03.152Z,5.60
2019-02-02T05:14:30.563Z,4.90
2019-02-02T05:16:57.944Z,4.43
2019-02-02T05:19:25.357Z,3.80
2019-02-02T05:21:52.755Z,5.47
2019-02-02T05:24:20.232Z,4.73
2019-02-02T05:26:47.612Z,4.10
2019-02-02T05:29:15.034Z,4.40
2019-02-02T05:31:42.418Z,4.60
2019-02-02T05:34:09.830Z,4.07
2019-02-02T05:36:37.220Z,6.17
2019-02-02T05:39:06.406Z,4.20
2019-02-02T05:41:33.795Z,4.40
2019-02-02T05:44:01.201Z,5.40
2019-02-02T05:46:28.645Z,4.80
2019-02-02T05:48:56.067Z,4.27
2019-02-02T05:51:23.458Z,4.27
2019-02-02T05:53:50.887Z,4.53
2019-02-02T05:56:18.374Z,5.53
2019-02-02T05:58:45.787Z,4.10
2019-02-02T06:01:15.027Z,4.23
2019-02-02T06:03:42.444Z,4.10
2019-02-02T06:06:09.828Z,4.60
2019-02-02T06:08:37.246Z,4.40
2019-02-02T06:11:04.760Z,4.87
2019-02-02T06:13:32.173Z,4.50
2019-02-02T06:15:59.554Z,4.30
2019-02-02T06:18:27.057Z,3.80
2019-02-02T06:20:54.480Z,5.07
2019-02-02T06:23:21.902Z,4.60
2019-02-02T06:25:49.292Z,4.53
2019-02-02T06:28:16.712Z,3.60
2019-02-02T06:30:44.094Z,4.60
2019-02-02T06:33:11.478Z,4.97
2019-02-02T06:35:38.893Z,4.10
2019-02-02T06:38:06.294Z,4.87
2019-02-02T06:40:33.709Z,5.03
2019-02-02T06:43:01.093Z,4.47
2019-02-02T06:45:29.679Z,5.37
2019-02-02T06:47:57.534Z,5.20
2019-02-02T06:50:25.019Z,4.53
2019-02-02T06:52:52.465Z,5.13
2019-02-02T06:55:19.883Z,4.53
2019-02-02T06:57:47.267Z,6.07
2019-02-02T07:00:18.962Z,6.50
2019-02-02T07:02:46.420Z,5.80
2019-02-02T07:05:14.001Z,5.57
2019-02-02T07:07:41.392Z,5.90
2019-02-02T07:10:13.654Z,5.80
2019-02-02T07:12:41.046Z,5.10
2019-02-02T07:15:12.730Z,5.23
2019-02-02T07:17:40.122Z,4.90
2019-02-02T07:20:09.406Z,5.20
2019-02-02T07:22:36.791Z,4.13
2019-02-02T07:25:05.573Z,5.20
2019-02-02T07:27:32.961Z,4.80
2019-02-02T07:30:00.422Z,5.40
2019-02-02T07:32:27.946Z,5.20
2019-02-02T07:34:55.363Z,5.20
2019-02-02T07:37:22.749Z,5.67
2019-02-02T07:39:50.179Z,6.03
2019-02-02T07:42:17.567Z,6.03
2019-02-02T07:44:44.973Z,5.03
2019-02-02T07:47:12.362Z,5.63
2019-02-02T07:49:39.790Z,5.70
2019-02-02T07:52:07.169Z,5.60
2019-02-02T07:54:34.689Z,4.70
2019-02-02T07:57:02.155Z,6.57
2019-02-02T07:59:29.608Z,5.50
2019-02-02T08:01:56.984Z,5.37
2019-02-02T08:04:24.378Z,6.57
2019-02-02T08:06:51.806Z,5.40
2019-02-02T08:09:19.296Z,5.43
2019-02-02T08:11:46.719Z,5.60
2019-02-02T08:14:14.099Z,5.13
2019-02-02T08:16:41.517Z,6.40
2019-02-02T08:19:08.896Z,6.23
2019-02-02T08:21:36.310Z,6.43
2019-02-02T08:24:03.840Z,6.90
2019-02-02T08:26:31.249Z,5.33
2019-02-02T08:28:58.648Z,5.43
2019-02-02T08:31:26.242Z,6.83
2019-02-02T08:33:53.631Z,4.90
2019-02-02T08:36:21.068Z,5.60
2019-02-02T08:38:48.449Z,5.27
2019-02-02T08:41:15.866Z,5.50
2019-02-02T08:43:43.261Z,5.27
2019-02-02T08:46:10.707Z,5.23
2019-02-02T08:48:38.077Z,6.07
2019-02-02T08:51:05.500Z,6.20
2019-02-02T08:53:33.032Z,5.53
2019-02-02T08:56:00.422Z,5.20
2019-02-02T08:58:27.844Z,5.13
2019-02-02T09:01:03.761Z,5.87
2019-02-02T09:03:24.382Z,5.63
2019-02-02T09:05:51.772Z,4.73
2019-02-02T09:08:19.178Z,4.97
2019-02-02T09:10:46.654Z,5.43
2019-02-02T09:13:14.070Z,4.00
2019-02-02T09:15:41.571Z,5.53
2019-02-02T09:18:08.988Z,5.37
2019-02-02T09:20:36.375Z,5.13
2019-02-02T09:23:06.613Z,4.67
2019-02-02T09:25:32.903Z,5.40
2019-02-02T09:28:00.423Z,5.40
2019-02-02T09:30:29.189Z,5.77
2019-02-02T09:32:56.606Z,6.37
2019-02-02T09:35:24.065Z,5.40
2019-02-02T09:37:51.551Z,5.20
2019-02-02T09:40:19.319Z,5.60
2019-02-02T09:42:46.900Z,5.00
2019-02-02T09:45:15.363Z,4.70
2019-02-02T09:47:42.858Z,5.03
2019-02-02T09:50:11.737Z,5.63
2019-02-02T09:52:39.225Z,4.53
2019-02-02T09:55:08.228Z,5.63
2019-02-02T09:57:36.924Z,5.83
2019-02-02T10:00:05.979Z,6.60
2019-02-02T10:02:33.394Z,5.37
2019-02-02T10:05:00.819Z,5.43
2019-02-02T10:07:28.244Z,5.30
2019-02-02T10:09:55.630Z,6.10
2019-02-02T10:12:23.052Z,6.83
2019-02-02T10:14:51.091Z,4.25
2019-02-02T10:17:18.518Z,4.97
2019-02-02T10:19:45.903Z,5.33
2019-02-02T10:22:13.328Z,6.27
2019-02-02T10:24:40.720Z,5.63
2019-02-02T10:27:08.134Z,5.53
2019-02-02T10:29:35.631Z,5.13
2019-02-02T10:32:03.023Z,6.27
2019-02-02T10:34:30.438Z,5.47
2019-02-02T10:36:57.882Z,5.83
2019-02-02T10:39:25.246Z,6.13
2019-02-02T10:41:52.644Z,5.40
2019-02-02T10:44:20.063Z,5.57
2019-02-02T10:46:47.442Z,4.50
2019-02-02T10:49:14.855Z,5.57
2019-02-02T10:51:42.237Z,4.83
2019-02-02T10:54:09.663Z,6.10
2019-02-02T10:56:37.152Z,5.30
2019-02-02T10:59:04.558Z,5.90
2019-02-02T11:01:31.941Z,5.60
2019-02-02T11:03:59.454Z,5.50
2019-02-02T11:06:26.983Z,5.60
2019-02-02T11:08:54.604Z,5.80
2019-02-02T11:11:21.990Z,5.80
2019-02-02T11:13:49.424Z,5.40
2019-02-02T11:16:16.830Z,6.10
2019-02-02T11:18:44.267Z,6.27
2019-02-02T11:21:11.681Z,5.73
2019-02-02T11:23:39.283Z,5.77
2019-02-02T11:26:06.820Z,5.67
2019-02-02T11:28:34.332Z,5.30
2019-02-02T11:31:01.745Z,4.53
2019-02-02T11:33:29.250Z,6.20
2019-02-02T11:35:56.643Z,5.90
2019-02-02T11:38:24.080Z,4.50
2019-02-02T11:40:51.490Z,6.67
2019-02-02T11:43:18.977Z,7.37
2019-02-02T11:45:46.363Z,5.83
2019-02-02T11:48:15.160Z,5.73
2019-02-02T11:50:42.695Z,7.70
2019-02-02T11:53:10.111Z,6.90
2019-02-02T11:55:37.529Z,7.37
2019-02-02T11:58:05.026Z,7.73
2019-02-02T12:00:36.643Z,9.30
2019-02-02T12:03:04.633Z,7.60
2019-02-02T12:05:32.200Z,8.27
2019-02-02T12:07:59.589Z,8.23
2019-02-02T12:10:30.955Z,6.60
2019-02-02T12:12:58.375Z,8.83
2019-02-02T12:15:25.877Z,8.13
2019-02-02T12:17:53.337Z,8.60
2019-02-02T12:20:24.731Z,9.13
2019-02-02T12:22:52.208Z,6.90
2019-02-02T12:25:19.703Z,7.97
2019-02-02T12:27:47.162Z,8.80
2019-02-02T12:30:25.045Z,8.43
2019-02-02T12:32:52.502Z,8.17
2019-02-02T12:35:21.115Z,7.13
2019-02-02T12:37:48.495Z,9.17
2019-02-02T12:40:19.957Z,7.50
2019-02-02T12:42:47.716Z,7.87
2019-02-02T12:45:16.703Z,7.73
2019-02-02T12:47:44.079Z,8.80
2019-02-02T12:50:12.373Z,8.17
2019-02-02T12:52:39.842Z,11.47
2019-02-02T12:55:08.322Z,7.70
2019-02-02T12:57:35.803Z,8.00
2019-02-02T13:00:03.794Z,7.50
2019-02-02T13:02:38.191Z,8.00
2019-02-02T13:05:00.364Z,8.20
2019-02-02T13:07:28.047Z,6.80
2019-02-02T13:09:55.430Z,7.07
2019-02-02T13:12:22.851Z,7.07
2019-02-02T13:14:50.347Z,8.47
2019-02-02T13:17:17.725Z,6.33
2019-02-02T13:19:45.185Z,7.07
2019-02-02T13:22:12.706Z,5.23
2019-02-02T13:24:40.095Z,6.50
2019-02-02T13:27:07.521Z,7.20
2019-02-02T13:29:34.909Z,7.40
2019-02-02T13:32:02.343Z,7.10
2019-02-02T13:34:29.714Z,6.73
2019-02-02T13:36:57.205Z,6.70
2019-02-02T13:39:24.596Z,7.50
2019-02-02T13:41:52.017Z,4.87
2019-02-02T13:44:19.406Z,5.17
2019-02-02T13:46:46.835Z,6.40
2019-02-02T13:49:14.294Z,7.53
2019-02-02T13:51:41.714Z,8.90
2019-02-02T13:54:09.093Z,6.73
2019-02-02T13:56:36.515Z,7.70
2019-02-02T13:59:04.182Z,5.80
2019-02-02T14:01:41.705Z,6.77
2019-02-02T14:04:00.670Z,6.30
2019-02-02T14:06:28.166Z,5.50
2019-02-02T14:08:55.557Z,5.63
2019-02-02T14:11:22.999Z,5.27
2019-02-02T14:13:50.374Z,6.27
2019-02-02T14:16:17.798Z,6.83
2019-02-02T14:18:45.187Z,5.80
2019-02-02T14:21:12.570Z,5.80
2019-02-02T14:23:39.993Z,6.27
2019-02-02T14:26:07.477Z,6.07
2019-02-02T14:28:34.903Z,5.90
2019-02-02T14:31:02.400Z,5.30
2019-02-02T14:33:29.823Z,5.60
2019-02-02T14:35:57.198Z,5.57
2019-02-02T14:38:24.716Z,6.47
2019-02-02T14:40:52.220Z,5.60
2019-02-02T14:43:19.615Z,5.27
2019-02-02T14:45:47.009Z,5.87
2019-02-02T14:48:14.598Z,5.87
2019-02-02T14:50:42.065Z,7.10
2019-02-02T14:53:09.550Z,5.70
2019-02-02T14:55:36.943Z,5.83
2019-02-02T14:58:04.736Z,5.57
2019-02-02T15:00:32.748Z,5.60
2019-02-02T15:03:03.213Z,6.70
2019-02-02T15:05:42.183Z,6.93
2019-02-02T15:07:59.708Z,6.83
2019-02-02T15:10:27.403Z,7.10
2019-02-02T15:12:55.121Z,5.40
2019-02-02T15:15:22.991Z,4.87
2019-02-02T15:17:50.336Z,5.70
2019-02-02T15:20:21.958Z,6.23
2019-02-02T15:22:47.963Z,5.73
2019-02-02T15:25:15.453Z,6.17
2019-02-02T15:27:42.844Z,8.47
2019-02-02T15:30:14.287Z,8.03
2019-02-02T15:32:41.678Z,6.30
2019-02-02T15:35:09.266Z,5.53
2019-02-02T15:37:36.763Z,7.10
2019-02-02T15:40:05.718Z,5.40
2019-02-02T15:42:33.123Z,6.03
2019-02-02T15:45:00.545Z,5.17
2019-02-02T15:47:28.017Z,5.87
2019-02-02T15:49:55.514Z,5.40
2019-02-02T15:52:22.903Z,5.67
2019-02-02T15:54:50.416Z,6.10
2019-02-02T15:57:17.937Z,5.20
2019-02-02T15:59:45.392Z,5.50
2019-02-02T16:02:12.791Z,5.47
2019-02-02T16:04:40.200Z,4.17
2019-02-02T16:07:07.587Z,5.07
2019-02-02T16:09:35.077Z,4.90
2019-02-02T16:12:02.463Z,4.30
2019-02-02T16:14:29.883Z,4.20
2019-02-02T16:16:57.510Z,4.77
2019-02-02T16:19:24.952Z,4.00
2019-02-02T16:21:52.314Z,4.50
2019-02-02T16:24:20.274Z,4.93
2019-02-02T16:26:48.700Z,4.63
2019-02-02T16:29:16.271Z,5.40
2019-02-02T16:31:43.664Z,4.80
2019-02-02T16:34:11.143Z,5.00
2019-02-02T16:36:38.601Z,4.23
2019-02-02T16:39:06.856Z,11.17
2019-02-02T16:41:34.291Z,27.20
2019-02-02T16:44:01.686Z,22.40
2019-02-02T16:46:29.122Z,17.70
2019-02-02T16:48:56.612Z,18.47
2019-02-02T16:51:24.099Z,13.30
2019-02-02T16:53:51.492Z,11.00
2019-02-02T16:56:18.918Z,9.80
2019-02-02T16:58:46.303Z,8.57
2019-02-02T17:01:13.875Z,9.13
2019-02-02T17:03:41.186Z,7.40
2019-02-02T17:06:08.607Z,7.40
2019-02-02T17:08:35.995Z,7.20
2019-02-02T17:11:03.688Z,6.50
2019-02-02T17:13:31.145Z,7.00
2019-02-02T17:15:58.570Z,5.90
2019-02-02T17:18:25.963Z,6.00
2019-02-02T17:20:53.382Z,5.90
2019-02-02T17:23:20.774Z,6.13
2019-02-02T17:25:48.206Z,6.07
2019-02-02T17:28:15.624Z,4.87
2019-02-02T17:30:43.046Z,5.37
2019-02-02T17:33:13.889Z,6.87
2019-02-02T17:35:41.404Z,6.87
2019-02-02T17:38:08.856Z,4.47
2019-02-02T17:40:36.274Z,5.03
2019-02-02T17:43:03.733Z,6.07
2019-02-02T17:45:31.246Z,4.77
2019-02-02T17:47:58.810Z,5.17
2019-02-02T17:50:29.718Z,5.37
2019-02-02T17:52:57.803Z,6.70
2019-02-02T17:55:25.349Z,4.13
2019-02-02T17:57:52.948Z,4.90
2019-02-02T18:00:44.219Z,6.47
2019-02-02T18:03:11.607Z,5.20
2019-02-02T18:05:39.007Z,7.30
2019-02-02T18:08:06.473Z,5.67
2019-02-02T18:10:34.043Z,4.10
2019-02-02T18:13:01.440Z,4.83
2019-02-02T18:15:28.906Z,3.87
2019-02-02T18:17:56.321Z,4.47
2019-02-02T18:20:23.756Z,4.00
2019-02-02T18:22:51.251Z,5.33
2019-02-02T18:25:18.708Z,4.97
2019-02-02T18:27:46.195Z,4.10
2019-02-02T18:30:24.055Z,4.90
2019-02-02T18:32:51.590Z,4.03
2019-02-02T18:35:19.050Z,3.60
2019-02-02T18:37:46.631Z,3.80
2019-02-02T18:40:23.578Z,4.57
2019-02-02T18:42:51.067Z,3.70
2019-02-02T18:45:19.632Z,4.20
2019-02-02T18:47:47.110Z,5.37
2019-02-02T18:50:15.467Z,4.00
2019-02-02T18:52:43.055Z,3.97
2019-02-02T18:55:14.827Z,4.20
2019-02-02T18:57:42.242Z,3.83
2019-02-02T19:00:14.309Z,4.30
2019-02-02T19:02:41.798Z,3.63
2019-02-02T19:05:09.772Z,3.90
2019-02-02T19:07:37.223Z,4.60
2019-02-02T19:10:12.399Z,4.73
2019-02-02T19:12:39.884Z,4.57
2019-02-02T19:15:08.545Z,4.33
2019-02-02T19:17:35.972Z,4.47
2019-02-02T19:20:05.642Z,3.65
2019-02-02T19:22:33.124Z,3.70
2019-02-02T19:25:00.583Z,4.10
2019-02-02T19:27:27.974Z,3.70
2019-02-02T19:29:55.361Z,4.40
2019-02-02T19:32:22.804Z,3.30
2019-02-02T19:34:50.217Z,4.27
2019-02-02T19:37:17.709Z,3.90
2019-02-02T19:39:45.356Z,4.00
2019-02-02T19:42:12.803Z,3.57
2019-02-02T19:44:40.256Z,3.77
2019-02-02T19:47:15.790Z,3.47
2019-02-02T19:49:36.770Z,3.90
2019-02-02T19:52:04.227Z,3.90
2019-02-02T19:54:31.647Z,3.93
2019-02-02T19:56:59.034Z,4.30
2019-02-02T19:59:26.459Z,4.00
2019-02-02T20:01:53.839Z,4.57
2019-02-02T20:04:21.262Z,3.87
2019-02-02T20:06:48.661Z,4.23
2019-02-02T20:09:16.088Z,4.30
2019-02-02T20:11:43.483Z,4.30
2019-02-02T20:14:10.962Z,3.40
2019-02-02T20:16:38.385Z,4.30
2019-02-02T20:19:05.800Z,4.03
2019-02-02T20:21:33.199Z,4.07
2019-02-02T20:24:00.616Z,4.23
2019-02-02T20:26:28.075Z,4.63
2019-02-02T20:28:55.485Z,3.80
2019-02-02T20:31:23.031Z,4.67
2019-02-02T20:33:50.446Z,4.00
2019-02-02T20:36:17.834Z,4.50
2019-02-02T20:38:45.250Z,4.30
2019-02-02T20:41:12.645Z,4.60
2019-02-02T20:43:40.053Z,4.27
2019-02-02T20:46:07.434Z,3.80
2019-02-02T20:48:34.922Z,3.73
2019-02-02T20:51:02.586Z,3.60
2019-02-02T20:53:30.003Z,3.83
2019-02-02T20:55:57.391Z,3.77
2019-02-02T20:58:24.811Z,4.80
2019-02-02T21:00:52.194Z,4.67
2019-02-02T21:03:19.650Z,4.00
2019-02-02T21:05:52.572Z,3.60
2019-02-02T21:08:16.410Z,4.37
2019-02-02T21:10:44.589Z,4.30
2019-02-02T21:13:12.271Z,5.37
2019-02-02T21:15:39.686Z,5.20
2019-02-02T21:18:07.250Z,4.83
2019-02-02T21:20:34.979Z,4.57
2019-02-02T21:23:02.440Z,3.83
2019-02-02T21:25:29.850Z,4.77
2019-02-02T21:27:57.238Z,5.97
2019-02-02T21:30:25.939Z,5.90
2019-02-02T21:32:53.390Z,4.40
2019-02-02T21:35:21.206Z,5.07
2019-02-02T21:37:48.662Z,4.53
2019-02-02T21:40:17.618Z,5.50
2019-02-02T21:42:45.035Z,6.00
2019-02-02T21:45:13.427Z,6.57
2019-02-02T21:47:41.081Z,7.90
2019-02-02T21:50:10.506Z,7.13
2019-02-02T21:52:37.886Z,5.53
2019-02-02T21:55:06.844Z,6.10
2019-02-02T21:57:34.386Z,6.07
2019-02-02T22:00:01.801Z,7.40
2019-02-02T22:02:30.022Z,6.40
2019-02-02T22:04:57.744Z,6.10
2019-02-02T22:07:25.135Z,6.43
2019-02-02T22:09:52.551Z,6.47
2019-02-02T22:12:19.938Z,6.37
2019-02-02T22:14:47.353Z,6.70
2019-02-02T22:17:14.758Z,6.80
2019-02-02T22:19:44.253Z,6.63
2019-02-02T22:22:11.616Z,6.20
2019-02-02T22:24:40.089Z,6.17
2019-02-02T22:27:07.473Z,6.40
2019-02-02T22:29:34.891Z,7.17
2019-02-02T22:32:02.281Z,7.47
2019-02-02T22:34:29.972Z,7.10
2019-02-02T22:36:57.390Z,6.40
2019-02-02T22:39:24.775Z,6.97
2019-02-02T22:41:52.205Z,7.00
2019-02-02T22:44:19.586Z,5.80
2019-02-02T22:46:49.918Z,7.63
2019-02-02T22:49:16.049Z,7.53
2019-02-02T22:51:43.494Z,5.60
2019-02-02T22:54:10.886Z,6.80
2019-02-02T22:56:38.411Z,6.10
2019-02-02T22:59:05.802Z,5.53
2019-02-02T23:01:33.764Z,7.53
2019-02-02T23:04:02.692Z,7.63
2019-02-02T23:06:40.947Z,4.93
2019-02-02T23:09:26.367Z,7.13
2019-02-02T23:12:07.401Z,6.27
2019-02-02T23:14:53.019Z,6.03
2019-02-02T23:17:20.438Z,6.07
2019-02-02T23:19:47.902Z,6.13
2019-02-02T23:22:15.720Z,5.80
2019-02-02T23:24:43.096Z,5.00
2019-02-02T23:27:10.569Z,4.70
2019-02-02T23:29:37.989Z,5.67
2019-02-02T23:32:05.590Z,7.10
2019-02-02T23:34:33.066Z,6.40
2019-02-02T23:37:00.815Z,5.50
2019-02-02T23:39:28.198Z,5.37
2019-02-02T23:41:55.628Z,5.00
2019-02-02T23:44:23.087Z,6.10
2019-02-02T23:46:50.500Z,5.90
2019-02-02T23:49:17.892Z,5.33
2019-02-02T23:51:45.316Z,6.47
2019-02-02T23:54:12.907Z,6.57
2019-02-02T23:56:40.321Z,4.87
2019-02-02T23:59:07.796Z,6.00
